sensor_id;sensor_type;location;lat;lon;timestamp;P1;durP1;ratioP1;P2;durP2;ratioP2
5491;SDS011;2768;53.540;10.224;2023-05-20T00:01:04;1.43;;;1.13;;
5491;SDS011;2768;53.540;10.224;2023-05-20T00:06:58;0.93;;;0.83;;
5491;SDS011;2768;53.540;10.224;2023-05-20T00:12:51;2.07;;;1.40;;
5491;SDS011;2768;53.540;10.224;2023-05-20T00:18:46;2.00;;;1.50;;
5491;SDS011;2768;53.540;10.224;2023-05-20T00:24:40;2.40;;;1.20;;
5491;SDS011;2768;53.540;10.224;2023-05-20T00:30:33;2.47;;;1.13;;
5491;SDS011;2768;53.540;10.224;2023-05-20T00:36:28;1.83;;;1.00;;
5491;SDS011;2768;53.540;10.224;2023-05-20T00:42:22;2.13;;;1.17;;
5491;SDS011;2768;53.540;10.224;2023-05-20T00:48:16;1.23;;;1.13;;
5491;SDS011;2768;53.540;10.224;2023-05-20T00:54:12;1.73;;;1.03;;
5491;SDS011;2768;53.540;10.224;2023-05-20T01:00:07;0.80;;;0.80;;
5491;SDS011;2768;53.540;10.224;2023-05-20T01:06:02;2.03;;;0.80;;
5491;SDS011;2768;53.540;10.224;2023-05-20T01:11:58;1.10;;;1.00;;
5491;SDS011;2768;53.540;10.224;2023-05-20T01:17:56;1.27;;;1.00;;
5491;SDS011;2768;53.540;10.224;2023-05-20T01:23:54;1.87;;;1.00;;
5491;SDS011;2768;53.540;10.224;2023-05-20T01:29:48;4.93;;;1.63;;
5491;SDS011;2768;53.540;10.224;2023-05-20T01:35:44;1.57;;;1.03;;
5491;SDS011;2768;53.540;10.224;2023-05-20T01:41:41;4.60;;;1.00;;
5491;SDS011;2768;53.540;10.224;2023-05-20T01:47:35;2.10;;;1.10;;
5491;SDS011;2768;53.540;10.224;2023-05-20T01:53:29;1.00;;;0.80;;
5491;SDS011;2768;53.540;10.224;2023-05-20T01:59:23;1.60;;;0.90;;
5491;SDS011;2768;53.540;10.224;2023-05-20T02:05:17;1.57;;;1.00;;
5491;SDS011;2768;53.540;10.224;2023-05-20T02:11:10;1.13;;;0.90;;
5491;SDS011;2768;53.540;10.224;2023-05-20T02:17:05;1.23;;;1.00;;
5491;SDS011;2768;53.540;10.224;2023-05-20T02:22:59;1.10;;;1.00;;
5491;SDS011;2768;53.540;10.224;2023-05-20T02:28:54;1.30;;;1.20;;
5491;SDS011;2768;53.540;10.224;2023-05-20T02:34:48;1.10;;;1.00;;
5491;SDS011;2768;53.540;10.224;2023-05-20T02:40:42;2.73;;;1.03;;
5491;SDS011;2768;53.540;10.224;2023-05-20T02:46:36;1.47;;;1.10;;
5491;SDS011;2768;53.540;10.224;2023-05-20T02:52:31;1.70;;;1.10;;
5491;SDS011;2768;53.540;10.224;2023-05-20T02:58:24;1.37;;;0.93;;
5491;SDS011;2768;53.540;10.224;2023-05-20T03:04:18;3.40;;;1.10;;
5491;SDS011;2768;53.540;10.224;2023-05-20T03:10:13;1.43;;;1.00;;
5491;SDS011;2768;53.540;10.224;2023-05-20T03:16:07;1.17;;;0.97;;
5491;SDS011;2768;53.540;10.224;2023-05-20T03:22:04;2.30;;;1.30;;
5491;SDS011;2768;53.540;10.224;2023-05-20T03:27:58;1.67;;;1.00;;
5491;SDS011;2768;53.540;10.224;2023-05-20T03:33:52;3.20;;;1.20;;
5491;SDS011;2768;53.540;10.224;2023-05-20T03:39:46;0.80;;;0.80;;
5491;SDS011;2768;53.540;10.224;2023-05-20T03:45:41;1.20;;;1.10;;
5491;SDS011;2768;53.540;10.224;2023-05-20T03:51:34;1.80;;;1.00;;
5491;SDS011;2768;53.540;10.224;2023-05-20T03:57:33;2.00;;;1.00;;
5491;SDS011;2768;53.540;10.224;2023-05-20T04:03:28;1.20;;;1.10;;
5491;SDS011;2768;53.540;10.224;2023-05-20T04:09:22;1.70;;;1.17;;
5491;SDS011;2768;53.540;10.224;2023-05-20T04:15:15;3.27;;;1.33;;
5491;SDS011;2768;53.540;10.224;2023-05-20T04:21:17;2.80;;;1.13;;
5491;SDS011;2768;53.540;10.224;2023-05-20T04:27:12;1.63;;;1.23;;
5491;SDS011;2768;53.540;10.224;2023-05-20T04:33:07;2.40;;;1.20;;
5491;SDS011;2768;53.540;10.224;2023-05-20T04:39:02;1.60;;;1.40;;
5491;SDS011;2768;53.540;10.224;2023-05-20T04:44:55;2.67;;;1.00;;
5491;SDS011;2768;53.540;10.224;2023-05-20T04:50:49;1.07;;;1.03;;
5491;SDS011;2768;53.540;10.224;2023-05-20T04:56:44;1.80;;;1.07;;
5491;SDS011;2768;53.540;10.224;2023-05-20T05:02:37;1.53;;;1.00;;
5491;SDS011;2768;53.540;10.224;2023-05-20T05:08:31;2.83;;;1.23;;
5491;SDS011;2768;53.540;10.224;2023-05-20T05:14:26;1.77;;;1.20;;
5491;SDS011;2768;53.540;10.224;2023-05-20T05:20:19;3.33;;;1.33;;
5491;SDS011;2768;53.540;10.224;2023-05-20T05:26:13;2.40;;;1.30;;
5491;SDS011;2768;53.540;10.224;2023-05-20T05:32:09;2.90;;;1.40;;
5491;SDS011;2768;53.540;10.224;2023-05-20T05:38:03;4.17;;;1.47;;
5491;SDS011;2768;53.540;10.224;2023-05-20T05:43:56;1.37;;;1.20;;
5491;SDS011;2768;53.540;10.224;2023-05-20T05:49:53;3.33;;;1.20;;
5491;SDS011;2768;53.540;10.224;2023-05-20T05:55:46;3.20;;;1.33;;
5491;SDS011;2768;53.540;10.224;2023-05-20T06:01:40;3.93;;;1.37;;
5491;SDS011;2768;53.540;10.224;2023-05-20T06:07:34;2.10;;;1.30;;
5491;SDS011;2768;53.540;10.224;2023-05-20T06:13:28;2.50;;;1.30;;
5491;SDS011;2768;53.540;10.224;2023-05-20T06:19:21;3.70;;;1.53;;
5491;SDS011;2768;53.540;10.224;2023-05-20T06:25:16;3.23;;;1.50;;
5491;SDS011;2768;53.540;10.224;2023-05-20T06:31:10;3.00;;;1.63;;
5491;SDS011;2768;53.540;10.224;2023-05-20T06:37:04;2.10;;;1.50;;
5491;SDS011;2768;53.540;10.224;2023-05-20T06:42:59;2.13;;;1.57;;
5491;SDS011;2768;53.540;10.224;2023-05-20T06:49:15;2.73;;;1.43;;
5491;SDS011;2768;53.540;10.224;2023-05-20T06:55:09;3.37;;;1.53;;
5491;SDS011;2768;53.540;10.224;2023-05-20T07:01:05;3.20;;;1.70;;
5491;SDS011;2768;53.540;10.224;2023-05-20T07:06:58;2.90;;;1.53;;
5491;SDS011;2768;53.540;10.224;2023-05-20T07:12:52;3.70;;;1.23;;
5491;SDS011;2768;53.540;10.224;2023-05-20T07:18:48;3.60;;;1.60;;
5491;SDS011;2768;53.540;10.224;2023-05-20T07:24:41;2.43;;;1.40;;
5491;SDS011;2768;53.540;10.224;2023-05-20T07:30:35;3.60;;;1.60;;
5491;SDS011;2768;53.540;10.224;2023-05-20T07:36:39;2.60;;;1.70;;
5491;SDS011;2768;53.540;10.224;2023-05-20T07:42:34;4.40;;;1.70;;
5491;SDS011;2768;53.540;10.224;2023-05-20T07:48:27;5.53;;;2.47;;
5491;SDS011;2768;53.540;10.224;2023-05-20T07:54:22;2.40;;;1.97;;
5491;SDS011;2768;53.540;10.224;2023-05-20T08:00:16;4.03;;;2.30;;
5491;SDS011;2768;53.540;10.224;2023-05-20T08:06:10;2.70;;;1.60;;
5491;SDS011;2768;53.540;10.224;2023-05-20T08:12:06;2.50;;;1.77;;
5491;SDS011;2768;53.540;10.224;2023-05-20T08:17:59;3.03;;;1.70;;
5491;SDS011;2768;53.540;10.224;2023-05-20T08:23:53;1.67;;;1.40;;
5491;SDS011;2768;53.540;10.224;2023-05-20T08:29:48;1.80;;;1.70;;
5491;SDS011;2768;53.540;10.224;2023-05-20T08:35:42;2.00;;;1.80;;
5491;SDS011;2768;53.540;10.224;2023-05-20T08:41:35;3.63;;;1.70;;
5491;SDS011;2768;53.540;10.224;2023-05-20T08:47:32;1.63;;;1.50;;
5491;SDS011;2768;53.540;10.224;2023-05-20T08:53:25;3.60;;;1.47;;
5491;SDS011;2768;53.540;10.224;2023-05-20T08:59:19;1.83;;;1.27;;
5491;SDS011;2768;53.540;10.224;2023-05-20T09:05:14;1.80;;;1.67;;
5491;SDS011;2768;53.540;10.224;2023-05-20T09:11:08;1.37;;;1.20;;
5491;SDS011;2768;53.540;10.224;2023-05-20T09:17:01;2.30;;;1.47;;
5491;SDS011;2768;53.540;10.224;2023-05-20T09:23:00;1.60;;;1.10;;
5491;SDS011;2768;53.540;10.224;2023-05-20T09:28:55;1.43;;;1.10;;
5491;SDS011;2768;53.540;10.224;2023-05-20T09:34:49;1.70;;;1.40;;
5491;SDS011;2768;53.540;10.224;2023-05-20T09:40:43;2.47;;;1.30;;
5491;SDS011;2768;53.540;10.224;2023-05-20T09:46:37;3.43;;;1.20;;
5491;SDS011;2768;53.540;10.224;2023-05-20T09:52:33;2.30;;;1.40;;
5491;SDS011;2768;53.540;10.224;2023-05-20T09:58:30;3.00;;;1.60;;
5491;SDS011;2768;53.540;10.224;2023-05-20T10:04:27;2.00;;;1.20;;
5491;SDS011;2768;53.540;10.224;2023-05-20T10:10:24;2.63;;;1.80;;
5491;SDS011;2768;53.540;10.224;2023-05-20T10:16:28;2.53;;;1.40;;
5491;SDS011;2768;53.540;10.224;2023-05-20T10:22:26;2.07;;;1.67;;
5491;SDS011;2768;53.540;10.224;2023-05-20T10:28:28;1.60;;;1.50;;
5491;SDS011;2768;53.540;10.224;2023-05-20T10:34:25;3.60;;;1.70;;
5491;SDS011;2768;53.540;10.224;2023-05-20T10:40:18;1.70;;;1.60;;
5491;SDS011;2768;53.540;10.224;2023-05-20T10:46:16;2.10;;;1.67;;
5491;SDS011;2768;53.540;10.224;2023-05-20T10:52:31;2.10;;;1.90;;
5491;SDS011;2768;53.540;10.224;2023-05-20T10:58:25;2.80;;;1.57;;
5491;SDS011;2768;53.540;10.224;2023-05-20T11:04:19;2.60;;;1.87;;
5491;SDS011;2768;53.540;10.224;2023-05-20T11:10:13;3.57;;;2.00;;
5491;SDS011;2768;53.540;10.224;2023-05-20T11:16:06;3.83;;;2.13;;
5491;SDS011;2768;53.540;10.224;2023-05-20T11:22:00;5.73;;;2.30;;
5491;SDS011;2768;53.540;10.224;2023-05-20T11:27:55;2.80;;;1.70;;
5491;SDS011;2768;53.540;10.224;2023-05-20T11:33:49;2.53;;;2.33;;
5491;SDS011;2768;53.540;10.224;2023-05-20T11:39:43;3.97;;;3.30;;
5491;SDS011;2768;53.540;10.224;2023-05-20T11:45:41;4.43;;;2.83;;
5491;SDS011;2768;53.540;10.224;2023-05-20T11:51:36;4.60;;;2.93;;
5491;SDS011;2768;53.540;10.224;2023-05-20T11:57:30;6.30;;;2.60;;
5491;SDS011;2768;53.540;10.224;2023-05-20T12:03:25;2.13;;;1.90;;
5491;SDS011;2768;53.540;10.224;2023-05-20T12:09:18;3.13;;;2.03;;
5491;SDS011;2768;53.540;10.224;2023-05-20T12:15:13;3.40;;;2.63;;
5491;SDS011;2768;53.540;10.224;2023-05-20T12:21:07;2.80;;;1.60;;
5491;SDS011;2768;53.540;10.224;2023-05-20T12:27:01;2.60;;;2.13;;
5491;SDS011;2768;53.540;10.224;2023-05-20T12:32:54;2.10;;;1.90;;
5491;SDS011;2768;53.540;10.224;2023-05-20T12:38:49;4.33;;;2.63;;
5491;SDS011;2768;53.540;10.224;2023-05-20T12:44:42;3.10;;;2.00;;
5491;SDS011;2768;53.540;10.224;2023-05-20T12:50:35;1.50;;;1.40;;
5491;SDS011;2768;53.540;10.224;2023-05-20T12:56:30;2.00;;;1.87;;
5491;SDS011;2768;53.540;10.224;2023-05-20T13:02:23;3.53;;;1.97;;
5491;SDS011;2768;53.540;10.224;2023-05-20T13:08:16;2.00;;;1.77;;
5491;SDS011;2768;53.540;10.224;2023-05-20T13:14:11;1.70;;;1.60;;
5491;SDS011;2768;53.540;10.224;2023-05-20T13:20:08;3.40;;;1.70;;
5491;SDS011;2768;53.540;10.224;2023-05-20T13:26:02;2.43;;;2.23;;
5491;SDS011;2768;53.540;10.224;2023-05-20T13:31:57;3.90;;;1.87;;
5491;SDS011;2768;53.540;10.224;2023-05-20T13:37:52;2.07;;;1.80;;
5491;SDS011;2768;53.540;10.224;2023-05-20T13:43:46;2.17;;;1.50;;
5491;SDS011;2768;53.540;10.224;2023-05-20T13:49:40;2.37;;;1.50;;
5491;SDS011;2768;53.540;10.224;2023-05-20T13:55:34;1.77;;;1.67;;
5491;SDS011;2768;53.540;10.224;2023-05-20T14:01:29;1.97;;;1.67;;
5491;SDS011;2768;53.540;10.224;2023-05-20T14:07:25;2.10;;;2.00;;
5491;SDS011;2768;53.540;10.224;2023-05-20T14:13:18;3.00;;;1.70;;
5491;SDS011;2768;53.540;10.224;2023-05-20T14:19:12;1.70;;;1.60;;
5491;SDS011;2768;53.540;10.224;2023-05-20T14:25:07;1.70;;;1.60;;
5491;SDS011;2768;53.540;10.224;2023-05-20T14:31:01;3.27;;;1.77;;
5491;SDS011;2768;53.540;10.224;2023-05-20T14:36:59;2.10;;;1.87;;
5491;SDS011;2768;53.540;10.224;2023-05-20T14:42:59;2.00;;;1.50;;
5491;SDS011;2768;53.540;10.224;2023-05-20T14:48:52;2.03;;;1.50;;
5491;SDS011;2768;53.540;10.224;2023-05-20T14:54:46;1.87;;;1.77;;
5491;SDS011;2768;53.540;10.224;2023-05-20T15:00:40;16.93;;;2.70;;
5491;SDS011;2768;53.540;10.224;2023-05-20T15:06:34;1.97;;;1.80;;
5491;SDS011;2768;53.540;10.224;2023-05-20T15:12:27;6.17;;;2.00;;
5491;SDS011;2768;53.540;10.224;2023-05-20T15:18:22;2.03;;;1.90;;
5491;SDS011;2768;53.540;10.224;2023-05-20T15:24:15;2.63;;;1.90;;
5491;SDS011;2768;53.540;10.224;2023-05-20T15:30:09;3.23;;;1.90;;
5491;SDS011;2768;53.540;10.224;2023-05-20T15:36:05;1.87;;;1.73;;
5491;SDS011;2768;53.540;10.224;2023-05-20T15:41:59;4.07;;;2.50;;
5491;SDS011;2768;53.540;10.224;2023-05-20T15:47:53;1.70;;;1.47;;
5491;SDS011;2768;53.540;10.224;2023-05-20T15:53:47;4.53;;;2.07;;
5491;SDS011;2768;53.540;10.224;2023-05-20T15:59:41;2.80;;;2.00;;
5491;SDS011;2768;53.540;10.224;2023-05-20T16:05:34;2.37;;;2.17;;
5491;SDS011;2768;53.540;10.224;2023-05-20T16:11:30;4.20;;;2.30;;
5491;SDS011;2768;53.540;10.224;2023-05-20T16:17:23;2.37;;;2.00;;
5491;SDS011;2768;53.540;10.224;2023-05-20T16:23:16;4.73;;;2.47;;
5491;SDS011;2768;53.540;10.224;2023-05-20T16:29:12;2.70;;;1.87;;
5491;SDS011;2768;53.540;10.224;2023-05-20T16:35:07;3.70;;;2.73;;
5491;SDS011;2768;53.540;10.224;2023-05-20T16:41:00;3.37;;;2.50;;
5491;SDS011;2768;53.540;10.224;2023-05-20T16:46:55;2.70;;;2.00;;
5491;SDS011;2768;53.540;10.224;2023-05-20T16:52:48;3.20;;;2.20;;
5491;SDS011;2768;53.540;10.224;2023-05-20T16:58:41;2.60;;;1.97;;
5491;SDS011;2768;53.540;10.224;2023-05-20T17:04:36;2.40;;;2.20;;
5491;SDS011;2768;53.540;10.224;2023-05-20T17:10:30;5.10;;;2.33;;
5491;SDS011;2768;53.540;10.224;2023-05-20T17:16:23;3.50;;;2.70;;
5491;SDS011;2768;53.540;10.224;2023-05-20T17:22:18;4.10;;;2.40;;
5491;SDS011;2768;53.540;10.224;2023-05-20T17:28:12;5.20;;;3.03;;
5491;SDS011;2768;53.540;10.224;2023-05-20T17:34:05;3.87;;;3.10;;
5491;SDS011;2768;53.540;10.224;2023-05-20T17:39:59;4.23;;;3.40;;
5491;SDS011;2768;53.540;10.224;2023-05-20T17:45:56;3.67;;;3.37;;
5491;SDS011;2768;53.540;10.224;2023-05-20T17:51:50;6.73;;;3.90;;
5491;SDS011;2768;53.540;10.224;2023-05-20T17:57:45;4.30;;;3.90;;
5491;SDS011;2768;53.540;10.224;2023-05-20T18:03:38;4.80;;;3.90;;
5491;SDS011;2768;53.540;10.224;2023-05-20T18:09:32;4.20;;;3.80;;
5491;SDS011;2768;53.540;10.224;2023-05-20T18:15:27;5.40;;;4.13;;
5491;SDS011;2768;53.540;10.224;2023-05-20T18:21:21;4.17;;;3.77;;
5491;SDS011;2768;53.540;10.224;2023-05-20T18:27:15;4.50;;;3.60;;
5491;SDS011;2768;53.540;10.224;2023-05-20T18:33:10;4.80;;;3.87;;
5491;SDS011;2768;53.540;10.224;2023-05-20T18:39:03;4.40;;;3.67;;
5491;SDS011;2768;53.540;10.224;2023-05-20T18:44:58;3.50;;;3.20;;
5491;SDS011;2768;53.540;10.224;2023-05-20T18:50:53;3.67;;;3.37;;
5491;SDS011;2768;53.540;10.224;2023-05-20T18:56:46;4.00;;;3.43;;
5491;SDS011;2768;53.540;10.224;2023-05-20T19:02:40;3.80;;;3.40;;
5491;SDS011;2768;53.540;10.224;2023-05-20T19:08:35;5.33;;;3.60;;
5491;SDS011;2768;53.540;10.224;2023-05-20T19:14:28;3.60;;;3.17;;
5491;SDS011;2768;53.540;10.224;2023-05-20T19:20:21;3.97;;;3.40;;
5491;SDS011;2768;53.540;10.224;2023-05-20T19:26:16;4.20;;;3.70;;
5491;SDS011;2768;53.540;10.224;2023-05-20T19:32:10;4.20;;;2.90;;
5491;SDS011;2768;53.540;10.224;2023-05-20T19:38:03;4.60;;;2.90;;
5491;SDS011;2768;53.540;10.224;2023-05-20T19:43:59;6.10;;;3.10;;
5491;SDS011;2768;53.540;10.224;2023-05-20T19:49:53;3.93;;;3.10;;
5491;SDS011;2768;53.540;10.224;2023-05-20T19:55:46;5.70;;;3.10;;
5491;SDS011;2768;53.540;10.224;2023-05-20T20:01:41;4.00;;;3.30;;
5491;SDS011;2768;53.540;10.224;2023-05-20T20:07:35;5.00;;;2.77;;
5491;SDS011;2768;53.540;10.224;2023-05-20T20:13:29;5.10;;;3.33;;
5491;SDS011;2768;53.540;10.224;2023-05-20T20:19:24;6.50;;;3.40;;
5491;SDS011;2768;53.540;10.224;2023-05-20T20:25:19;5.23;;;2.80;;
5491;SDS011;2768;53.540;10.224;2023-05-20T20:31:14;5.67;;;3.10;;
5491;SDS011;2768;53.540;10.224;2023-05-20T20:37:08;6.03;;;2.90;;
5491;SDS011;2768;53.540;10.224;2023-05-20T20:43:05;4.97;;;2.80;;
5491;SDS011;2768;53.540;10.224;2023-05-20T20:48:59;4.93;;;2.93;;
5491;SDS011;2768;53.540;10.224;2023-05-20T20:54:54;5.43;;;2.87;;
5491;SDS011;2768;53.540;10.224;2023-05-20T21:00:48;9.87;;;3.40;;
5491;SDS011;2768;53.540;10.224;2023-05-20T21:06:43;4.07;;;2.53;;
5491;SDS011;2768;53.540;10.224;2023-05-20T21:12:38;5.73;;;3.47;;
5491;SDS011;2768;53.540;10.224;2023-05-20T21:18:32;4.33;;;2.80;;
5491;SDS011;2768;53.540;10.224;2023-05-20T21:24:26;4.30;;;2.80;;
5491;SDS011;2768;53.540;10.224;2023-05-20T21:30:21;4.43;;;2.23;;
5491;SDS011;2768;53.540;10.224;2023-05-20T21:36:15;10.43;;;4.00;;
5491;SDS011;2768;53.540;10.224;2023-05-20T21:42:08;5.43;;;3.53;;
5491;SDS011;2768;53.540;10.224;2023-05-20T21:48:04;3.30;;;3.03;;
5491;SDS011;2768;53.540;10.224;2023-05-20T21:53:57;7.57;;;3.07;;
5491;SDS011;2768;53.540;10.224;2023-05-20T21:59:51;4.37;;;3.23;;
5491;SDS011;2768;53.540;10.224;2023-05-20T22:05:46;7.83;;;3.80;;
5491;SDS011;2768;53.540;10.224;2023-05-20T22:11:40;8.30;;;3.60;;
5491;SDS011;2768;53.540;10.224;2023-05-20T22:17:36;4.80;;;2.93;;
5491;SDS011;2768;53.540;10.224;2023-05-20T22:23:31;3.97;;;2.30;;
5491;SDS011;2768;53.540;10.224;2023-05-20T22:29:25;4.90;;;2.53;;
5491;SDS011;2768;53.540;10.224;2023-05-20T22:35:18;5.43;;;3.00;;
5491;SDS011;2768;53.540;10.224;2023-05-20T22:41:14;6.20;;;3.80;;
5491;SDS011;2768;53.540;10.224;2023-05-20T22:47:07;3.90;;;2.80;;
5491;SDS011;2768;53.540;10.224;2023-05-20T22:53:01;3.70;;;2.70;;
5491;SDS011;2768;53.540;10.224;2023-05-20T22:58:56;5.10;;;2.87;;
5491;SDS011;2768;53.540;10.224;2023-05-20T23:04:49;4.20;;;2.83;;
5491;SDS011;2768;53.540;10.224;2023-05-20T23:10:43;5.23;;;2.40;;
5491;SDS011;2768;53.540;10.224;2023-05-20T23:16:38;5.73;;;2.50;;
5491;SDS011;2768;53.540;10.224;2023-05-20T23:22:32;4.33;;;3.13;;
5491;SDS011;2768;53.540;10.224;2023-05-20T23:28:26;2.90;;;2.37;;
5491;SDS011;2768;53.540;10.224;2023-05-20T23:34:21;3.03;;;2.40;;
5491;SDS011;2768;53.540;10.224;2023-05-20T23:40:14;4.43;;;2.80;;
5491;SDS011;2768;53.540;10.224;2023-05-20T23:46:07;4.40;;;2.47;;
5491;SDS011;2768;53.540;10.224;2023-05-20T23:52:03;6.07;;;2.73;;
5491;SDS011;2768;53.540;10.224;2023-05-20T23:57:57;2.97;;;2.47;;
